sensor_id;sensor_type;location;lat;lon;timestamp;P1;durP1;ratioP1;P2;durP2;ratioP2
7029;SDS011;3556;53.500;10.176;2022-12-10T00:01:07;57.40;;;19.17;;
7029;SDS011;3556;53.500;10.176;2022-12-10T00:03:35;62.03;;;19.70;;
7029;SDS011;3556;53.500;10.176;2022-12-10T00:06:01;68.80;;;20.93;;
7029;SDS011;3556;53.500;10.176;2022-12-10T00:08:28;63.60;;;19.60;;
7029;SDS011;3556;53.500;10.176;2022-12-10T00:10:54;57.00;;;19.30;;
7029;SDS011;3556;53.500;10.176;2022-12-10T00:13:19;56.43;;;19.03;;
7029;SDS011;3556;53.500;10.176;2022-12-10T00:15:45;54.57;;;17.87;;
7029;SDS011;3556;53.500;10.176;2022-12-10T00:18:11;57.87;;;19.17;;
7029;SDS011;3556;53.500;10.176;2022-12-10T00:20:37;55.07;;;18.80;;
7029;SDS011;3556;53.500;10.176;2022-12-10T00:23:03;55.13;;;19.00;;
7029;SDS011;3556;53.500;10.176;2022-12-10T00:25:28;57.90;;;18.73;;
7029;SDS011;3556;53.500;10.176;2022-12-10T00:27:54;58.80;;;19.30;;
7029;SDS011;3556;53.500;10.176;2022-12-10T00:30:19;50.70;;;18.07;;
7029;SDS011;3556;53.500;10.176;2022-12-10T00:32:45;53.53;;;17.90;;
7029;SDS011;3556;53.500;10.176;2022-12-10T00:35:11;48.40;;;17.37;;
7029;SDS011;3556;53.500;10.176;2022-12-10T00:37:36;48.23;;;17.53;;
7029;SDS011;3556;53.500;10.176;2022-12-10T00:40:02;51.80;;;17.80;;
7029;SDS011;3556;53.500;10.176;2022-12-10T00:42:28;40.90;;;15.97;;
7029;SDS011;3556;53.500;10.176;2022-12-10T00:44:53;47.10;;;16.90;;
7029;SDS011;3556;53.500;10.176;2022-12-10T00:47:19;46.53;;;16.53;;
7029;SDS011;3556;53.500;10.176;2022-12-10T00:49:45;38.80;;;14.57;;
7029;SDS011;3556;53.500;10.176;2022-12-10T00:52:10;52.47;;;16.17;;
7029;SDS011;3556;53.500;10.176;2022-12-10T00:54:36;48.50;;;15.57;;
7029;SDS011;3556;53.500;10.176;2022-12-10T00:57:01;44.93;;;16.10;;
7029;SDS011;3556;53.500;10.176;2022-12-10T00:59:27;40.17;;;15.67;;
7029;SDS011;3556;53.500;10.176;2022-12-10T01:01:53;42.97;;;15.00;;
7029;SDS011;3556;53.500;10.176;2022-12-10T01:04:18;43.90;;;14.90;;
7029;SDS011;3556;53.500;10.176;2022-12-10T01:06:48;49.63;;;16.30;;
7029;SDS011;3556;53.500;10.176;2022-12-10T01:09:17;43.20;;;15.20;;
7029;SDS011;3556;53.500;10.176;2022-12-10T01:11:46;55.47;;;16.07;;
7029;SDS011;3556;53.500;10.176;2022-12-10T01:14:15;47.37;;;14.67;;
7029;SDS011;3556;53.500;10.176;2022-12-10T01:16:43;37.80;;;15.20;;
7029;SDS011;3556;53.500;10.176;2022-12-10T01:19:09;45.10;;;15.37;;
7029;SDS011;3556;53.500;10.176;2022-12-10T01:21:35;37.57;;;13.60;;
7029;SDS011;3556;53.500;10.176;2022-12-10T01:24:00;36.80;;;15.10;;
7029;SDS011;3556;53.500;10.176;2022-12-10T01:26:28;37.13;;;14.27;;
7029;SDS011;3556;53.500;10.176;2022-12-10T01:28:55;33.73;;;13.70;;
7029;SDS011;3556;53.500;10.176;2022-12-10T01:31:32;38.27;;;14.50;;
7029;SDS011;3556;53.500;10.176;2022-12-10T01:33:59;32.83;;;13.43;;
7029;SDS011;3556;53.500;10.176;2022-12-10T01:38:55;38.40;;;14.20;;
7029;SDS011;3556;53.500;10.176;2022-12-10T01:41:34;41.13;;;14.97;;
7029;SDS011;3556;53.500;10.176;2022-12-10T01:46:35;44.30;;;14.10;;
7029;SDS011;3556;53.500;10.176;2022-12-10T01:49:06;44.93;;;14.60;;
7029;SDS011;3556;53.500;10.176;2022-12-10T01:51:41;38.30;;;13.97;;
7029;SDS011;3556;53.500;10.176;2022-12-10T01:54:09;32.13;;;13.20;;
7029;SDS011;3556;53.500;10.176;2022-12-10T01:56:40;35.97;;;13.17;;
7029;SDS011;3556;53.500;10.176;2022-12-10T01:59:08;35.20;;;13.70;;
7029;SDS011;3556;53.500;10.176;2022-12-10T02:07:27;31.10;;;12.73;;
7029;SDS011;3556;53.500;10.176;2022-12-10T02:10:14;36.03;;;13.40;;
7029;SDS011;3556;53.500;10.176;2022-12-10T02:12:48;38.03;;;14.20;;
7029;SDS011;3556;53.500;10.176;2022-12-10T02:15:20;35.23;;;13.83;;
7029;SDS011;3556;53.500;10.176;2022-12-10T02:17:54;38.20;;;14.57;;
7029;SDS011;3556;53.500;10.176;2022-12-10T02:20:29;34.93;;;13.70;;
7029;SDS011;3556;53.500;10.176;2022-12-10T02:23:03;31.23;;;14.03;;
7029;SDS011;3556;53.500;10.176;2022-12-10T02:31:28;34.20;;;13.87;;
7029;SDS011;3556;53.500;10.176;2022-12-10T02:33:57;32.90;;;15.10;;
7029;SDS011;3556;53.500;10.176;2022-12-10T02:36:25;35.23;;;14.40;;
7029;SDS011;3556;53.500;10.176;2022-12-10T02:38:55;37.03;;;14.53;;
7029;SDS011;3556;53.500;10.176;2022-12-10T02:41:32;34.97;;;14.20;;
7029;SDS011;3556;53.500;10.176;2022-12-10T02:44:05;37.37;;;15.43;;
7029;SDS011;3556;53.500;10.176;2022-12-10T02:46:36;33.20;;;13.10;;
7029;SDS011;3556;53.500;10.176;2022-12-10T02:49:03;25.83;;;11.20;;
7029;SDS011;3556;53.500;10.176;2022-12-10T02:51:30;22.07;;;10.90;;
7029;SDS011;3556;53.500;10.176;2022-12-10T02:54:40;22.27;;;11.00;;
7029;SDS011;3556;53.500;10.176;2022-12-10T02:56:58;21.87;;;11.23;;
7029;SDS011;3556;53.500;10.176;2022-12-10T02:59:29;25.97;;;12.00;;
7029;SDS011;3556;53.500;10.176;2022-12-10T03:02:12;31.03;;;13.30;;
7029;SDS011;3556;53.500;10.176;2022-12-10T03:04:46;33.43;;;15.03;;
7029;SDS011;3556;53.500;10.176;2022-12-10T03:07:57;33.03;;;13.60;;
7029;SDS011;3556;53.500;10.176;2022-12-10T03:13:00;24.07;;;11.50;;
7029;SDS011;3556;53.500;10.176;2022-12-10T03:15:31;17.80;;;10.27;;
7029;SDS011;3556;53.500;10.176;2022-12-10T03:18:00;22.30;;;11.63;;
7029;SDS011;3556;53.500;10.176;2022-12-10T03:20:29;21.43;;;10.90;;
7029;SDS011;3556;53.500;10.176;2022-12-10T03:22:57;21.47;;;10.67;;
7029;SDS011;3556;53.500;10.176;2022-12-10T03:25:25;15.80;;;10.23;;
7029;SDS011;3556;53.500;10.176;2022-12-10T03:27:54;19.70;;;10.33;;
7029;SDS011;3556;53.500;10.176;2022-12-10T03:30:22;16.40;;;9.93;;
7029;SDS011;3556;53.500;10.176;2022-12-10T03:32:48;21.00;;;10.93;;
7029;SDS011;3556;53.500;10.176;2022-12-10T03:35:14;22.70;;;11.00;;
7029;SDS011;3556;53.500;10.176;2022-12-10T03:37:42;16.63;;;10.27;;
7029;SDS011;3556;53.500;10.176;2022-12-10T03:40:08;16.70;;;10.00;;
7029;SDS011;3556;53.500;10.176;2022-12-10T03:42:36;18.27;;;9.83;;
7029;SDS011;3556;53.500;10.176;2022-12-10T03:45:02;15.97;;;9.90;;
7029;SDS011;3556;53.500;10.176;2022-12-10T03:47:28;19.23;;;10.33;;
7029;SDS011;3556;53.500;10.176;2022-12-10T03:49:54;19.03;;;11.07;;
7029;SDS011;3556;53.500;10.176;2022-12-10T03:52:19;24.57;;;11.70;;
7029;SDS011;3556;53.500;10.176;2022-12-10T03:54:45;15.50;;;10.50;;
7029;SDS011;3556;53.500;10.176;2022-12-10T03:57:11;20.10;;;10.90;;
7029;SDS011;3556;53.500;10.176;2022-12-10T03:59:36;15.80;;;10.07;;
7029;SDS011;3556;53.500;10.176;2022-12-10T04:02:02;15.40;;;9.67;;
7029;SDS011;3556;53.500;10.176;2022-12-10T04:04:28;14.30;;;9.40;;
7029;SDS011;3556;53.500;10.176;2022-12-10T04:06:53;15.70;;;10.27;;
7029;SDS011;3556;53.500;10.176;2022-12-10T04:09:19;13.97;;;9.40;;
7029;SDS011;3556;53.500;10.176;2022-12-10T04:11:45;14.17;;;8.97;;
7029;SDS011;3556;53.500;10.176;2022-12-10T04:14:12;16.80;;;8.87;;
7029;SDS011;3556;53.500;10.176;2022-12-10T04:16:56;18.87;;;10.30;;
7029;SDS011;3556;53.500;10.176;2022-12-10T04:19:22;17.07;;;10.47;;
7029;SDS011;3556;53.500;10.176;2022-12-10T04:21:49;13.97;;;9.87;;
7029;SDS011;3556;53.500;10.176;2022-12-10T04:24:33;18.27;;;9.53;;
7029;SDS011;3556;53.500;10.176;2022-12-10T04:27:23;17.30;;;10.70;;
7029;SDS011;3556;53.500;10.176;2022-12-10T04:29:53;15.40;;;10.30;;
7029;SDS011;3556;53.500;10.176;2022-12-10T04:32:20;18.47;;;11.30;;
7029;SDS011;3556;53.500;10.176;2022-12-10T04:34:46;14.57;;;9.00;;
7029;SDS011;3556;53.500;10.176;2022-12-10T04:37:12;18.33;;;10.57;;
7029;SDS011;3556;53.500;10.176;2022-12-10T04:39:38;16.03;;;10.87;;
7029;SDS011;3556;53.500;10.176;2022-12-10T04:42:04;19.97;;;10.47;;
7029;SDS011;3556;53.500;10.176;2022-12-10T04:44:31;16.20;;;9.87;;
7029;SDS011;3556;53.500;10.176;2022-12-10T04:46:56;13.60;;;9.13;;
7029;SDS011;3556;53.500;10.176;2022-12-10T04:49:22;16.90;;;9.60;;
7029;SDS011;3556;53.500;10.176;2022-12-10T04:51:48;15.80;;;10.00;;
7029;SDS011;3556;53.500;10.176;2022-12-10T04:54:14;14.30;;;9.30;;
7029;SDS011;3556;53.500;10.176;2022-12-10T04:56:40;12.17;;;9.23;;
7029;SDS011;3556;53.500;10.176;2022-12-10T04:59:06;12.53;;;8.37;;
7029;SDS011;3556;53.500;10.176;2022-12-10T05:01:32;13.63;;;8.80;;
7029;SDS011;3556;53.500;10.176;2022-12-10T05:03:59;11.43;;;8.50;;
7029;SDS011;3556;53.500;10.176;2022-12-10T05:06:26;16.00;;;9.53;;
7029;SDS011;3556;53.500;10.176;2022-12-10T05:08:52;16.00;;;10.90;;
7029;SDS011;3556;53.500;10.176;2022-12-10T05:11:19;16.60;;;10.10;;
7029;SDS011;3556;53.500;10.176;2022-12-10T05:13:46;12.47;;;9.17;;
7029;SDS011;3556;53.500;10.176;2022-12-10T05:16:13;14.57;;;9.53;;
7029;SDS011;3556;53.500;10.176;2022-12-10T05:18:40;19.73;;;9.90;;
7029;SDS011;3556;53.500;10.176;2022-12-10T05:21:06;16.23;;;9.70;;
7029;SDS011;3556;53.500;10.176;2022-12-10T05:23:38;14.27;;;9.20;;
7029;SDS011;3556;53.500;10.176;2022-12-10T05:26:07;14.90;;;10.17;;
7029;SDS011;3556;53.500;10.176;2022-12-10T05:28:35;14.77;;;9.37;;
7029;SDS011;3556;53.500;10.176;2022-12-10T05:31:02;14.60;;;10.07;;
7029;SDS011;3556;53.500;10.176;2022-12-10T05:33:27;15.07;;;10.20;;
7029;SDS011;3556;53.500;10.176;2022-12-10T05:36:01;14.97;;;10.27;;
7029;SDS011;3556;53.500;10.176;2022-12-10T05:38:28;16.57;;;10.20;;
7029;SDS011;3556;53.500;10.176;2022-12-10T05:40:54;13.63;;;10.20;;
7029;SDS011;3556;53.500;10.176;2022-12-10T05:43:20;15.07;;;10.30;;
7029;SDS011;3556;53.500;10.176;2022-12-10T05:45:46;16.03;;;8.90;;
7029;SDS011;3556;53.500;10.176;2022-12-10T05:48:12;12.27;;;8.40;;
7029;SDS011;3556;53.500;10.176;2022-12-10T05:50:39;13.33;;;9.47;;
7029;SDS011;3556;53.500;10.176;2022-12-10T05:53:05;13.20;;;9.20;;
7029;SDS011;3556;53.500;10.176;2022-12-10T05:55:31;12.03;;;9.23;;
7029;SDS011;3556;53.500;10.176;2022-12-10T05:57:58;14.60;;;9.57;;
7029;SDS011;3556;53.500;10.176;2022-12-10T06:00:25;12.93;;;9.63;;
7029;SDS011;3556;53.500;10.176;2022-12-10T06:02:51;14.00;;;8.43;;
7029;SDS011;3556;53.500;10.176;2022-12-10T06:05:17;13.70;;;8.93;;
7029;SDS011;3556;53.500;10.176;2022-12-10T06:07:43;14.93;;;8.87;;
7029;SDS011;3556;53.500;10.176;2022-12-10T06:10:09;10.97;;;8.70;;
7029;SDS011;3556;53.500;10.176;2022-12-10T06:12:35;11.47;;;8.50;;
7029;SDS011;3556;53.500;10.176;2022-12-10T06:15:01;11.43;;;8.80;;
7029;SDS011;3556;53.500;10.176;2022-12-10T06:17:27;11.20;;;8.10;;
7029;SDS011;3556;53.500;10.176;2022-12-10T06:19:53;15.10;;;8.37;;
7029;SDS011;3556;53.500;10.176;2022-12-10T06:22:19;12.77;;;8.10;;
7029;SDS011;3556;53.500;10.176;2022-12-10T06:24:44;11.60;;;7.90;;
7029;SDS011;3556;53.500;10.176;2022-12-10T06:27:10;10.53;;;8.30;;
7029;SDS011;3556;53.500;10.176;2022-12-10T06:29:35;12.30;;;8.73;;
7029;SDS011;3556;53.500;10.176;2022-12-10T06:32:01;12.03;;;8.80;;
7029;SDS011;3556;53.500;10.176;2022-12-10T06:34:27;12.80;;;8.57;;
7029;SDS011;3556;53.500;10.176;2022-12-10T06:36:52;14.97;;;9.83;;
7029;SDS011;3556;53.500;10.176;2022-12-10T06:39:18;12.47;;;9.07;;
7029;SDS011;3556;53.500;10.176;2022-12-10T06:41:44;12.33;;;8.47;;
7029;SDS011;3556;53.500;10.176;2022-12-10T06:44:11;13.47;;;8.83;;
7029;SDS011;3556;53.500;10.176;2022-12-10T06:46:39;13.50;;;9.40;;
7029;SDS011;3556;53.500;10.176;2022-12-10T06:49:05;16.40;;;9.87;;
7029;SDS011;3556;53.500;10.176;2022-12-10T06:51:32;15.97;;;9.77;;
7029;SDS011;3556;53.500;10.176;2022-12-10T06:53:57;18.17;;;10.27;;
7029;SDS011;3556;53.500;10.176;2022-12-10T06:56:23;15.37;;;9.30;;
7029;SDS011;3556;53.500;10.176;2022-12-10T06:58:49;12.17;;;8.97;;
7029;SDS011;3556;53.500;10.176;2022-12-10T07:01:19;15.87;;;10.43;;
7029;SDS011;3556;53.500;10.176;2022-12-10T07:03:49;16.33;;;10.40;;
7029;SDS011;3556;53.500;10.176;2022-12-10T07:06:16;16.47;;;10.87;;
7029;SDS011;3556;53.500;10.176;2022-12-10T07:08:42;14.70;;;9.30;;
7029;SDS011;3556;53.500;10.176;2022-12-10T07:11:09;16.63;;;10.17;;
7029;SDS011;3556;53.500;10.176;2022-12-10T07:13:37;13.70;;;9.00;;
7029;SDS011;3556;53.500;10.176;2022-12-10T07:16:03;16.60;;;10.13;;
7029;SDS011;3556;53.500;10.176;2022-12-10T07:18:36;13.87;;;9.83;;
7029;SDS011;3556;53.500;10.176;2022-12-10T07:21:02;17.47;;;10.47;;
7029;SDS011;3556;53.500;10.176;2022-12-10T07:23:37;14.50;;;10.07;;
7029;SDS011;3556;53.500;10.176;2022-12-10T07:26:02;19.10;;;10.90;;
7029;SDS011;3556;53.500;10.176;2022-12-10T07:28:28;28.10;;;11.83;;
7029;SDS011;3556;53.500;10.176;2022-12-10T07:30:59;15.93;;;10.40;;
7029;SDS011;3556;53.500;10.176;2022-12-10T07:33:26;18.10;;;10.70;;
7029;SDS011;3556;53.500;10.176;2022-12-10T07:35:52;15.60;;;10.03;;
7029;SDS011;3556;53.500;10.176;2022-12-10T07:38:18;20.43;;;11.40;;
7029;SDS011;3556;53.500;10.176;2022-12-10T07:40:43;17.10;;;11.23;;
7029;SDS011;3556;53.500;10.176;2022-12-10T07:43:09;18.90;;;11.43;;
7029;SDS011;3556;53.500;10.176;2022-12-10T07:45:34;27.40;;;13.07;;
7029;SDS011;3556;53.500;10.176;2022-12-10T07:48:00;15.73;;;10.97;;
7029;SDS011;3556;53.500;10.176;2022-12-10T07:50:26;17.60;;;10.60;;
7029;SDS011;3556;53.500;10.176;2022-12-10T07:52:51;12.60;;;8.53;;
7029;SDS011;3556;53.500;10.176;2022-12-10T07:55:17;10.57;;;8.77;;
7029;SDS011;3556;53.500;10.176;2022-12-10T07:57:42;15.97;;;8.87;;
7029;SDS011;3556;53.500;10.176;2022-12-10T08:00:08;17.43;;;8.53;;
7029;SDS011;3556;53.500;10.176;2022-12-10T08:02:34;13.60;;;7.67;;
7029;SDS011;3556;53.500;10.176;2022-12-10T08:05:00;15.03;;;8.27;;
7029;SDS011;3556;53.500;10.176;2022-12-10T08:07:26;10.13;;;7.80;;
7029;SDS011;3556;53.500;10.176;2022-12-10T08:09:51;11.43;;;8.47;;
7029;SDS011;3556;53.500;10.176;2022-12-10T08:12:17;9.30;;;7.77;;
7029;SDS011;3556;53.500;10.176;2022-12-10T08:14:43;12.93;;;7.67;;
7029;SDS011;3556;53.500;10.176;2022-12-10T08:17:08;10.30;;;7.90;;
7029;SDS011;3556;53.500;10.176;2022-12-10T08:19:34;14.13;;;8.53;;
7029;SDS011;3556;53.500;10.176;2022-12-10T08:21:59;9.83;;;8.13;;
7029;SDS011;3556;53.500;10.176;2022-12-10T08:24:25;11.47;;;8.50;;
7029;SDS011;3556;53.500;10.176;2022-12-10T08:26:50;9.93;;;8.10;;
7029;SDS011;3556;53.500;10.176;2022-12-10T08:29:16;10.90;;;7.60;;
7029;SDS011;3556;53.500;10.176;2022-12-10T08:31:42;10.50;;;8.63;;
7029;SDS011;3556;53.500;10.176;2022-12-10T08:34:12;12.20;;;8.40;;
7029;SDS011;3556;53.500;10.176;2022-12-10T08:36:39;9.60;;;8.10;;
7029;SDS011;3556;53.500;10.176;2022-12-10T08:39:05;9.00;;;6.70;;
7029;SDS011;3556;53.500;10.176;2022-12-10T08:41:31;11.07;;;8.80;;
7029;SDS011;3556;53.500;10.176;2022-12-10T08:43:56;9.60;;;7.17;;
7029;SDS011;3556;53.500;10.176;2022-12-10T08:46:22;8.57;;;7.33;;
7029;SDS011;3556;53.500;10.176;2022-12-10T08:48:49;11.93;;;8.97;;
7029;SDS011;3556;53.500;10.176;2022-12-10T08:51:17;11.10;;;8.70;;
7029;SDS011;3556;53.500;10.176;2022-12-10T08:53:43;15.50;;;9.07;;
7029;SDS011;3556;53.500;10.176;2022-12-10T08:56:09;13.30;;;8.60;;
7029;SDS011;3556;53.500;10.176;2022-12-10T08:58:36;10.77;;;8.10;;
7029;SDS011;3556;53.500;10.176;2022-12-10T09:01:20;14.67;;;9.20;;
7029;SDS011;3556;53.500;10.176;2022-12-10T09:03:46;12.60;;;9.40;;
7029;SDS011;3556;53.500;10.176;2022-12-10T09:06:13;14.90;;;9.57;;
7029;SDS011;3556;53.500;10.176;2022-12-10T09:08:40;15.90;;;9.80;;
7029;SDS011;3556;53.500;10.176;2022-12-10T09:11:07;14.73;;;10.00;;
7029;SDS011;3556;53.500;10.176;2022-12-10T09:13:34;11.37;;;8.53;;
7029;SDS011;3556;53.500;10.176;2022-12-10T09:16:00;12.40;;;9.00;;
7029;SDS011;3556;53.500;10.176;2022-12-10T09:18:26;11.13;;;8.97;;
7029;SDS011;3556;53.500;10.176;2022-12-10T09:20:51;15.10;;;9.80;;
7029;SDS011;3556;53.500;10.176;2022-12-10T09:23:17;9.30;;;8.07;;
7029;SDS011;3556;53.500;10.176;2022-12-10T09:25:43;15.53;;;9.57;;
7029;SDS011;3556;53.500;10.176;2022-12-10T09:28:08;14.33;;;9.37;;
7029;SDS011;3556;53.500;10.176;2022-12-10T09:30:34;13.90;;;9.67;;
7029;SDS011;3556;53.500;10.176;2022-12-10T09:33:00;13.17;;;9.40;;
7029;SDS011;3556;53.500;10.176;2022-12-10T09:35:25;12.17;;;9.17;;
7029;SDS011;3556;53.500;10.176;2022-12-10T09:37:51;11.90;;;8.90;;
7029;SDS011;3556;53.500;10.176;2022-12-10T09:40:18;12.60;;;9.03;;
7029;SDS011;3556;53.500;10.176;2022-12-10T09:50:51;13.20;;;9.73;;
7029;SDS011;3556;53.500;10.176;2022-12-10T09:53:39;10.50;;;8.57;;
7029;SDS011;3556;53.500;10.176;2022-12-10T09:56:10;13.50;;;9.00;;
7029;SDS011;3556;53.500;10.176;2022-12-10T09:58:44;13.10;;;9.00;;
7029;SDS011;3556;53.500;10.176;2022-12-10T10:01:10;12.57;;;8.77;;
7029;SDS011;3556;53.500;10.176;2022-12-10T10:03:40;12.43;;;9.23;;
7029;SDS011;3556;53.500;10.176;2022-12-10T10:06:08;13.60;;;9.50;;
7029;SDS011;3556;53.500;10.176;2022-12-10T10:11:16;21.13;;;9.93;;
7029;SDS011;3556;53.500;10.176;2022-12-10T10:16:42;15.03;;;9.80;;
7029;SDS011;3556;53.500;10.176;2022-12-10T10:19:26;11.87;;;8.87;;
7029;SDS011;3556;53.500;10.176;2022-12-10T10:21:55;12.47;;;8.80;;
7029;SDS011;3556;53.500;10.176;2022-12-10T10:24:22;14.70;;;10.00;;
7029;SDS011;3556;53.500;10.176;2022-12-10T10:27:01;13.00;;;9.60;;
7029;SDS011;3556;53.500;10.176;2022-12-10T10:29:50;13.17;;;9.20;;
7029;SDS011;3556;53.500;10.176;2022-12-10T10:32:19;11.50;;;8.93;;
7029;SDS011;3556;53.500;10.176;2022-12-10T10:34:58;15.47;;;10.20;;
7029;SDS011;3556;53.500;10.176;2022-12-10T10:39:55;15.40;;;10.37;;
7029;SDS011;3556;53.500;10.176;2022-12-10T10:42:32;15.63;;;10.47;;
7029;SDS011;3556;53.500;10.176;2022-12-10T10:45:05;14.47;;;10.00;;
7029;SDS011;3556;53.500;10.176;2022-12-10T10:47:53;15.00;;;9.80;;
7029;SDS011;3556;53.500;10.176;2022-12-10T10:50:30;13.43;;;9.40;;
7029;SDS011;3556;53.500;10.176;2022-12-10T10:53:01;19.67;;;10.17;;
7029;SDS011;3556;53.500;10.176;2022-12-10T10:55:30;17.33;;;11.00;;
7029;SDS011;3556;53.500;10.176;2022-12-10T10:58:00;17.53;;;10.60;;
7029;SDS011;3556;53.500;10.176;2022-12-10T11:00:26;16.33;;;10.80;;
7029;SDS011;3556;53.500;10.176;2022-12-10T11:02:51;14.87;;;10.50;;
7029;SDS011;3556;53.500;10.176;2022-12-10T11:05:21;19.30;;;11.27;;
7029;SDS011;3556;53.500;10.176;2022-12-10T11:07:57;15.40;;;11.07;;
7029;SDS011;3556;53.500;10.176;2022-12-10T11:10:25;18.80;;;10.80;;
7029;SDS011;3556;53.500;10.176;2022-12-10T11:15:41;17.43;;;10.90;;
7029;SDS011;3556;53.500;10.176;2022-12-10T11:18:26;16.83;;;10.20;;
7029;SDS011;3556;53.500;10.176;2022-12-10T11:21:19;18.57;;;10.70;;
7029;SDS011;3556;53.500;10.176;2022-12-10T11:23:52;18.80;;;11.20;;
7029;SDS011;3556;53.500;10.176;2022-12-10T11:37:29;19.43;;;11.67;;
7029;SDS011;3556;53.500;10.176;2022-12-10T11:40:00;18.20;;;11.40;;
7029;SDS011;3556;53.500;10.176;2022-12-10T11:48:29;14.33;;;10.40;;
7029;SDS011;3556;53.500;10.176;2022-12-10T11:51:18;23.20;;;11.27;;
7029;SDS011;3556;53.500;10.176;2022-12-10T11:56:43;18.10;;;10.97;;
7029;SDS011;3556;53.500;10.176;2022-12-10T12:12:55;23.53;;;13.40;;
7029;SDS011;3556;53.500;10.176;2022-12-10T12:15:42;21.83;;;12.80;;
7029;SDS011;3556;53.500;10.176;2022-12-10T12:18:24;24.40;;;12.60;;
7029;SDS011;3556;53.500;10.176;2022-12-10T12:21:11;24.20;;;12.80;;
7029;SDS011;3556;53.500;10.176;2022-12-10T12:26:26;21.90;;;12.03;;
7029;SDS011;3556;53.500;10.176;2022-12-10T12:31:36;22.47;;;13.40;;
7029;SDS011;3556;53.500;10.176;2022-12-10T12:34:21;21.60;;;12.37;;
7029;SDS011;3556;53.500;10.176;2022-12-10T12:36:53;22.60;;;13.57;;
7029;SDS011;3556;53.500;10.176;2022-12-10T12:39:23;22.30;;;13.10;;
7029;SDS011;3556;53.500;10.176;2022-12-10T12:42:09;21.17;;;12.37;;
7029;SDS011;3556;53.500;10.176;2022-12-10T12:52:51;19.73;;;11.60;;
7029;SDS011;3556;53.500;10.176;2022-12-10T12:55:26;21.60;;;12.17;;
7029;SDS011;3556;53.500;10.176;2022-12-10T12:58:03;18.63;;;11.93;;
7029;SDS011;3556;53.500;10.176;2022-12-10T13:00:35;21.90;;;12.33;;
7029;SDS011;3556;53.500;10.176;2022-12-10T13:03:17;21.87;;;12.40;;
7029;SDS011;3556;53.500;10.176;2022-12-10T13:05:54;23.17;;;13.13;;
7029;SDS011;3556;53.500;10.176;2022-12-10T13:16:33;21.87;;;13.47;;
7029;SDS011;3556;53.500;10.176;2022-12-10T13:42:35;24.97;;;13.53;;
7029;SDS011;3556;53.500;10.176;2022-12-10T13:47:50;14.70;;;10.10;;
7029;SDS011;3556;53.500;10.176;2022-12-10T13:50:48;22.53;;;13.43;;
7029;SDS011;3556;53.500;10.176;2022-12-10T13:53:28;19.63;;;12.57;;
7029;SDS011;3556;53.500;10.176;2022-12-10T13:56:28;27.83;;;15.77;;
7029;SDS011;3556;53.500;10.176;2022-12-10T14:02:12;16.70;;;11.60;;
7029;SDS011;3556;53.500;10.176;2022-12-10T14:05:13;23.17;;;11.73;;
7029;SDS011;3556;53.500;10.176;2022-12-10T14:08:01;21.73;;;12.27;;
7029;SDS011;3556;53.500;10.176;2022-12-10T14:10:32;22.93;;;13.33;;
7029;SDS011;3556;53.500;10.176;2022-12-10T14:13:00;24.10;;;13.10;;
7029;SDS011;3556;53.500;10.176;2022-12-10T14:15:28;18.83;;;11.50;;
7029;SDS011;3556;53.500;10.176;2022-12-10T14:18:00;16.70;;;11.20;;
7029;SDS011;3556;53.500;10.176;2022-12-10T14:20:32;22.17;;;12.60;;
7029;SDS011;3556;53.500;10.176;2022-12-10T14:23:02;22.03;;;13.30;;
7029;SDS011;3556;53.500;10.176;2022-12-10T14:25:48;22.23;;;11.67;;
7029;SDS011;3556;53.500;10.176;2022-12-10T14:28:16;22.77;;;13.00;;
7029;SDS011;3556;53.500;10.176;2022-12-10T14:30:47;20.00;;;11.30;;
7029;SDS011;3556;53.500;10.176;2022-12-10T14:33:20;19.93;;;12.07;;
7029;SDS011;3556;53.500;10.176;2022-12-10T14:35:49;21.33;;;11.83;;
7029;SDS011;3556;53.500;10.176;2022-12-10T14:38:17;20.90;;;12.83;;
7029;SDS011;3556;53.500;10.176;2022-12-10T14:40:46;20.63;;;12.73;;
7029;SDS011;3556;53.500;10.176;2022-12-10T14:43:20;22.70;;;13.13;;
7029;SDS011;3556;53.500;10.176;2022-12-10T14:45:51;27.40;;;12.80;;
7029;SDS011;3556;53.500;10.176;2022-12-10T14:48:21;20.67;;;12.90;;
7029;SDS011;3556;53.500;10.176;2022-12-10T14:50:46;21.00;;;12.50;;
7029;SDS011;3556;53.500;10.176;2022-12-10T14:53:14;22.40;;;13.60;;
7029;SDS011;3556;53.500;10.176;2022-12-10T14:55:45;20.83;;;12.77;;
7029;SDS011;3556;53.500;10.176;2022-12-10T14:58:15;20.80;;;12.50;;
7029;SDS011;3556;53.500;10.176;2022-12-10T15:00:47;23.23;;;13.30;;
7029;SDS011;3556;53.500;10.176;2022-12-10T15:03:18;19.57;;;11.93;;
7029;SDS011;3556;53.500;10.176;2022-12-10T15:05:58;21.07;;;11.70;;
7029;SDS011;3556;53.500;10.176;2022-12-10T15:08:27;18.20;;;12.40;;
7029;SDS011;3556;53.500;10.176;2022-12-10T15:10:57;28.17;;;14.17;;
7029;SDS011;3556;53.500;10.176;2022-12-10T15:13:37;28.87;;;14.87;;
7029;SDS011;3556;53.500;10.176;2022-12-10T15:16:05;27.30;;;13.10;;
7029;SDS011;3556;53.500;10.176;2022-12-10T15:18:40;26.87;;;14.70;;
7029;SDS011;3556;53.500;10.176;2022-12-10T15:21:19;23.67;;;14.03;;
7029;SDS011;3556;53.500;10.176;2022-12-10T15:23:47;21.70;;;12.90;;
7029;SDS011;3556;53.500;10.176;2022-12-10T15:26:23;24.43;;;12.63;;
7029;SDS011;3556;53.500;10.176;2022-12-10T15:28:50;20.00;;;12.23;;
7029;SDS011;3556;53.500;10.176;2022-12-10T15:33:58;23.37;;;13.47;;
7029;SDS011;3556;53.500;10.176;2022-12-10T15:36:37;21.90;;;12.57;;
7029;SDS011;3556;53.500;10.176;2022-12-10T15:41:41;22.10;;;13.27;;
7029;SDS011;3556;53.500;10.176;2022-12-10T15:44:53;25.50;;;13.50;;
7029;SDS011;3556;53.500;10.176;2022-12-10T15:47:23;21.83;;;12.80;;
7029;SDS011;3556;53.500;10.176;2022-12-10T15:49:51;28.13;;;14.93;;
7029;SDS011;3556;53.500;10.176;2022-12-10T15:52:19;21.80;;;13.00;;
7029;SDS011;3556;53.500;10.176;2022-12-10T15:54:53;21.10;;;12.30;;
7029;SDS011;3556;53.500;10.176;2022-12-10T15:57:21;21.67;;;12.80;;
7029;SDS011;3556;53.500;10.176;2022-12-10T15:59:55;23.73;;;13.60;;
7029;SDS011;3556;53.500;10.176;2022-12-10T16:05:23;23.03;;;12.87;;
7029;SDS011;3556;53.500;10.176;2022-12-10T16:07:49;32.30;;;12.20;;
7029;SDS011;3556;53.500;10.176;2022-12-10T16:10:18;23.93;;;13.30;;
7029;SDS011;3556;53.500;10.176;2022-12-10T16:12:47;24.03;;;13.70;;
7029;SDS011;3556;53.500;10.176;2022-12-10T16:15:16;20.77;;;12.77;;
7029;SDS011;3556;53.500;10.176;2022-12-10T16:17:44;19.77;;;11.60;;
7029;SDS011;3556;53.500;10.176;2022-12-10T16:20:17;25.97;;;13.00;;
7029;SDS011;3556;53.500;10.176;2022-12-10T16:22:51;20.63;;;12.17;;
7029;SDS011;3556;53.500;10.176;2022-12-10T16:25:18;20.20;;;12.13;;
7029;SDS011;3556;53.500;10.176;2022-12-10T16:27:44;22.53;;;12.23;;
7029;SDS011;3556;53.500;10.176;2022-12-10T16:32:49;22.10;;;11.73;;
7029;SDS011;3556;53.500;10.176;2022-12-10T16:35:16;21.20;;;11.40;;
7029;SDS011;3556;53.500;10.176;2022-12-10T16:37:45;20.10;;;11.20;;
7029;SDS011;3556;53.500;10.176;2022-12-10T16:40:14;22.63;;;11.63;;
7029;SDS011;3556;53.500;10.176;2022-12-10T16:42:41;19.33;;;11.50;;
7029;SDS011;3556;53.500;10.176;2022-12-10T16:45:14;25.03;;;12.83;;
7029;SDS011;3556;53.500;10.176;2022-12-10T16:47:41;21.13;;;11.87;;
7029;SDS011;3556;53.500;10.176;2022-12-10T16:50:08;22.97;;;13.80;;
7029;SDS011;3556;53.500;10.176;2022-12-10T16:52:34;23.73;;;11.57;;
7029;SDS011;3556;53.500;10.176;2022-12-10T16:54:59;18.63;;;11.73;;
7029;SDS011;3556;53.500;10.176;2022-12-10T16:57:26;22.37;;;11.77;;
7029;SDS011;3556;53.500;10.176;2022-12-10T16:59:52;21.53;;;12.00;;
7029;SDS011;3556;53.500;10.176;2022-12-10T17:02:17;18.77;;;11.17;;
7029;SDS011;3556;53.500;10.176;2022-12-10T17:04:45;21.27;;;12.13;;
7029;SDS011;3556;53.500;10.176;2022-12-10T17:07:11;24.27;;;12.27;;